createdAt,value
2019-06-20T00:01:53.615Z,95.80
2019-06-20T00:03:57.047Z,96.20
2019-06-20T00:06:00.486Z,97.10
2019-06-20T00:08:04.099Z,97.70
2019-06-20T00:10:07.701Z,97.30
2019-06-20T00:12:11.175Z,96.90
2019-06-20T00:14:14.616Z,97.20
2019-06-20T00:16:18.047Z,96.70
2019-06-20T00:18:21.476Z,95.90
2019-06-20T00:20:24.913Z,95.20
2019-06-20T00:22:28.460Z,95.50
2019-06-20T00:24:31.874Z,95.30
2019-06-20T00:26:35.309Z,95.90
2019-06-20T00:28:38.733Z,96.50
2019-06-20T00:30:42.205Z,94.90
2019-06-20T00:32:45.645Z,94.40
2019-06-20T00:34:49.068Z,93.70
2019-06-20T00:36:52.594Z,94.10
2019-06-20T00:38:56.047Z,93.80
2019-06-20T00:40:59.495Z,94.50
2019-06-20T00:43:16.304Z,93.50
2019-06-20T00:45:08.482Z,93.00
2019-06-20T00:47:11.936Z,95.10
2019-06-20T00:49:15.357Z,95.00
2019-06-20T00:51:18.793Z,96.00
2019-06-20T00:53:22.250Z,95.90
2019-06-20T00:55:25.811Z,95.50
2019-06-20T00:57:29.246Z,95.60
2019-06-20T00:59:32.752Z,95.10
2019-06-20T01:01:36.267Z,94.70
2019-06-20T01:03:39.694Z,94.40
2019-06-20T01:05:43.114Z,94.40
2019-06-20T01:07:46.560Z,93.50
2019-06-20T01:09:50.066Z,93.80
2019-06-20T01:11:53.502Z,94.80
2019-06-20T01:13:56.920Z,94.70
2019-06-20T01:16:00.346Z,94.60
2019-06-20T01:18:04.209Z,94.80
2019-06-20T01:20:09.435Z,94.40
2019-06-20T01:22:12.952Z,94.40
2019-06-20T01:24:16.374Z,94.10
2019-06-20T01:26:19.788Z,93.90
2019-06-20T01:28:23.482Z,94.10
2019-06-20T01:30:26.898Z,94.20
2019-06-20T01:32:30.407Z,93.90
2019-06-20T01:34:33.843Z,93.80
2019-06-20T01:36:37.292Z,94.20
2019-06-20T01:38:40.776Z,94.60
2019-06-20T01:40:44.277Z,94.40
2019-06-20T01:42:47.736Z,94.20
2019-06-20T01:44:51.228Z,94.00
2019-06-20T01:46:54.727Z,94.20
2019-06-20T01:48:58.433Z,94.10
2019-06-20T01:51:01.855Z,93.80
2019-06-20T01:53:05.442Z,93.60
2019-06-20T01:55:09.270Z,92.90
2019-06-20T01:57:12.731Z,93.00
2019-06-20T01:59:16.317Z,93.60
2019-06-20T02:01:19.834Z,93.90
2019-06-20T02:03:23.403Z,93.90
2019-06-20T02:05:26.898Z,93.90
2019-06-20T02:07:30.767Z,94.20
2019-06-20T02:09:34.207Z,94.60
2019-06-20T02:11:37.711Z,94.40
2019-06-20T02:13:41.144Z,94.60
2019-06-20T02:15:44.639Z,94.30
2019-06-20T02:17:48.169Z,93.90
2019-06-20T02:19:51.715Z,93.80
2019-06-20T02:21:55.127Z,94.00
2019-06-20T02:23:58.577Z,93.80
2019-06-20T02:26:02.080Z,93.70
2019-06-20T02:28:05.623Z,93.60
2019-06-20T02:30:09.509Z,93.60
2019-06-20T02:32:12.947Z,93.40
2019-06-20T02:34:16.459Z,93.60
2019-06-20T02:36:19.965Z,94.10
2019-06-20T02:38:23.455Z,94.90
2019-06-20T02:40:27.034Z,94.80
2019-06-20T02:42:30.514Z,94.90
2019-06-20T02:44:34.035Z,94.70
2019-06-20T02:46:37.528Z,94.50
2019-06-20T02:48:40.962Z,94.50
2019-06-20T02:50:44.461Z,94.20
2019-06-20T02:52:47.957Z,94.20
2019-06-20T02:54:51.477Z,93.80
2019-06-20T02:56:54.900Z,93.60
2019-06-20T02:58:58.337Z,93.60
2019-06-20T03:01:01.837Z,93.50
2019-06-20T03:03:05.404Z,93.70
2019-06-20T03:05:09.756Z,93.60
2019-06-20T03:07:13.192Z,93.70
2019-06-20T03:09:16.659Z,93.50
2019-06-20T03:11:20.071Z,94.00
2019-06-20T03:13:23.491Z,93.80
2019-06-20T03:15:26.943Z,93.50
2019-06-20T03:17:30.383Z,93.60
2019-06-20T03:19:33.812Z,93.60
2019-06-20T03:21:37.265Z,93.60
2019-06-20T03:23:40.699Z,93.80
2019-06-20T03:25:44.207Z,94.00
2019-06-20T03:27:47.628Z,93.90
2019-06-20T03:29:51.041Z,93.70
2019-06-20T03:31:54.488Z,93.50
2019-06-20T03:33:57.914Z,93.30
2019-06-20T03:36:01.362Z,93.20
2019-06-20T03:38:05.195Z,93.50
2019-06-20T03:40:08.756Z,94.20
2019-06-20T03:42:12.278Z,94.50
2019-06-20T03:44:15.729Z,94.30
2019-06-20T03:46:19.223Z,94.20
2019-06-20T03:48:22.652Z,94.20
2019-06-20T03:50:26.212Z,94.30
2019-06-20T03:52:29.731Z,94.30
2019-06-20T03:54:33.158Z,94.10
2019-06-20T03:56:36.602Z,93.80
2019-06-20T03:58:40.025Z,93.80
2019-06-20T04:00:43.457Z,93.50
2019-06-20T04:02:46.900Z,93.60
2019-06-20T04:04:50.336Z,93.60
2019-06-20T04:06:53.781Z,93.80
2019-06-20T04:08:57.227Z,93.80
2019-06-20T04:11:00.653Z,93.60
2019-06-20T04:13:04.268Z,93.10
2019-06-20T04:15:18.639Z,92.80
2019-06-20T04:17:12.864Z,93.00
2019-06-20T04:19:16.360Z,93.30
2019-06-20T04:21:19.785Z,93.40
2019-06-20T04:23:23.229Z,93.00
2019-06-20T04:25:26.742Z,93.50
2019-06-20T04:27:30.188Z,93.40
2019-06-20T04:29:35.854Z,93.20
2019-06-20T04:31:38.847Z,93.10
2019-06-20T04:33:42.282Z,93.40
2019-06-20T04:35:45.794Z,93.50
2019-06-20T04:37:49.373Z,93.20
2019-06-20T04:39:52.789Z,92.90
2019-06-20T04:41:56.217Z,93.20
2019-06-20T04:43:59.672Z,92.90
2019-06-20T04:46:16.742Z,93.70
2019-06-20T04:48:20.250Z,93.40
2019-06-20T04:50:23.666Z,94.50
2019-06-20T04:52:27.089Z,94.60
2019-06-20T04:54:30.558Z,94.60
2019-06-20T04:56:34.039Z,94.20
2019-06-20T04:58:37.855Z,94.00
2019-06-20T05:00:41.580Z,95.60
2019-06-20T05:02:45.004Z,95.80
2019-06-20T05:04:48.456Z,96.50
2019-06-20T05:06:54.962Z,98.50
2019-06-20T05:08:58.408Z,99.90
2019-06-20T05:11:01.832Z,99.90
2019-06-20T05:13:05.251Z,99.90
2019-06-20T05:15:08.922Z,99.90
2019-06-20T05:17:12.360Z,99.90
2019-06-20T05:19:15.805Z,99.90
2019-06-20T05:21:22.312Z,99.90
2019-06-20T05:23:24.398Z,99.90
2019-06-20T05:25:27.936Z,99.90
2019-06-20T05:27:31.419Z,99.50
2019-06-20T05:29:34.853Z,99.10
2019-06-20T05:31:38.287Z,98.80
2019-06-20T05:33:41.724Z,99.00
2019-06-20T05:35:45.252Z,98.50
2019-06-20T05:37:48.688Z,98.20
2019-06-20T05:39:52.102Z,98.30
2019-06-20T05:41:55.612Z,97.90
2019-06-20T05:43:59.038Z,97.80
2019-06-20T05:46:09.323Z,97.70
2019-06-20T05:48:07.709Z,97.40
2019-06-20T05:50:11.394Z,97.10
2019-06-20T05:52:14.921Z,97.10
2019-06-20T05:54:18.354Z,97.30
2019-06-20T05:56:21.884Z,98.20
2019-06-20T05:58:25.316Z,98.50
2019-06-20T06:00:29.101Z,98.70
2019-06-20T06:02:32.531Z,99.90
2019-06-20T06:04:35.959Z,99.90
2019-06-20T06:06:39.420Z,99.50
2019-06-20T06:08:42.844Z,98.70
2019-06-20T06:10:47.032Z,98.20
2019-06-20T06:12:50.579Z,98.10
2019-06-20T06:14:54.001Z,98.00
2019-06-20T06:16:57.447Z,98.10
2019-06-20T06:19:00.885Z,97.90
2019-06-20T06:21:05.459Z,97.80
2019-06-20T06:23:08.896Z,98.00
2019-06-20T06:25:14.172Z,97.90
2019-06-20T06:27:17.688Z,97.60
2019-06-20T06:29:21.117Z,97.80
2019-06-20T06:31:24.554Z,97.50
2019-06-20T06:33:27.966Z,97.40
2019-06-20T06:35:31.491Z,97.00
2019-06-20T06:37:35.010Z,96.60
2019-06-20T06:39:38.431Z,96.50
2019-06-20T06:41:41.867Z,96.30
2019-06-20T06:43:45.503Z,96.30
2019-06-20T06:45:48.995Z,96.20
2019-06-20T06:47:52.500Z,95.90
2019-06-20T06:49:55.977Z,96.20
2019-06-20T06:51:59.502Z,95.90
2019-06-20T06:54:02.958Z,96.00
2019-06-20T06:56:06.515Z,95.80
2019-06-20T06:58:09.977Z,95.00
2019-06-20T07:00:14.958Z,95.20
2019-06-20T07:02:18.447Z,95.50
2019-06-20T07:04:21.888Z,95.70
2019-06-20T07:06:25.396Z,96.10
2019-06-20T07:08:28.913Z,96.20
2019-06-20T07:10:32.471Z,95.60
2019-06-20T07:12:35.993Z,96.00
2019-06-20T07:14:42.688Z,96.30
2019-06-20T07:16:59.414Z,96.50
2019-06-20T07:18:49.882Z,97.50
2019-06-20T07:20:53.323Z,97.10
2019-06-20T07:22:56.752Z,95.90
2019-06-20T07:25:00.265Z,95.80
2019-06-20T07:27:03.764Z,95.90
2019-06-20T07:29:07.236Z,95.80
2019-06-20T07:31:10.740Z,96.60
2019-06-20T07:33:14.158Z,96.50
2019-06-20T07:35:18.012Z,96.60
2019-06-20T07:37:21.537Z,96.20
2019-06-20T07:39:25.039Z,96.50
2019-06-20T07:41:28.480Z,95.70
2019-06-20T07:43:31.893Z,96.60
2019-06-20T07:45:35.414Z,96.40
2019-06-20T07:47:38.847Z,96.50
2019-06-20T07:49:42.314Z,95.60
2019-06-20T07:51:45.806Z,96.50
2019-06-20T07:53:49.223Z,96.90
2019-06-20T07:55:52.676Z,96.90
2019-06-20T07:57:56.104Z,97.20
2019-06-20T07:59:59.573Z,95.90
2019-06-20T08:02:03.153Z,95.90
2019-06-20T08:04:06.662Z,96.40
2019-06-20T08:06:10.254Z,96.10
2019-06-20T08:08:13.677Z,96.70
2019-06-20T08:10:17.599Z,96.40
2019-06-20T08:12:21.022Z,97.00
2019-06-20T08:14:24.459Z,96.90
2019-06-20T08:16:28.047Z,96.30
2019-06-20T08:18:31.464Z,95.90
2019-06-20T08:20:34.991Z,95.50
2019-06-20T08:22:38.560Z,95.20
2019-06-20T08:24:42.032Z,95.10
2019-06-20T08:26:45.569Z,93.50
2019-06-20T08:28:49.131Z,94.00
2019-06-20T08:30:52.599Z,94.20
2019-06-20T08:32:57.734Z,94.20
2019-06-20T08:35:02.492Z,92.80
2019-06-20T08:37:06.410Z,91.50
2019-06-20T08:39:10.072Z,91.30
2019-06-20T08:41:13.590Z,93.40
2019-06-20T08:43:17.007Z,93.30
2019-06-20T08:45:21.476Z,92.00
2019-06-20T08:47:24.984Z,91.10
2019-06-20T08:49:28.414Z,90.00
2019-06-20T08:51:31.930Z,90.40
2019-06-20T08:53:35.344Z,91.20
2019-06-20T08:55:38.835Z,89.50
2019-06-20T08:57:42.410Z,90.90
2019-06-20T08:59:45.873Z,89.00
2019-06-20T09:01:49.412Z,88.30
2019-06-20T09:03:55.146Z,88.40
2019-06-20T09:05:58.385Z,90.70
2019-06-20T09:10:08.950Z,90.40
2019-06-20T09:12:12.486Z,89.80
2019-06-20T09:14:15.981Z,91.50
2019-06-20T09:16:24.558Z,89.60
2019-06-20T09:18:24.579Z,91.00
2019-06-20T09:20:28.173Z,90.80
2019-06-20T09:22:31.729Z,90.10
2019-06-20T09:24:35.364Z,90.30
2019-06-20T09:26:38.803Z,89.00
2019-06-20T09:28:42.237Z,88.40
2019-06-20T09:30:45.725Z,88.80
2019-06-20T09:32:49.192Z,88.80
2019-06-20T09:34:53.075Z,87.70
2019-06-20T09:36:57.741Z,86.70
2019-06-20T09:39:01.219Z,86.50
2019-06-20T09:41:04.782Z,88.20
2019-06-20T09:43:08.383Z,86.10
2019-06-20T09:45:15.125Z,85.00
2019-06-20T09:47:18.567Z,87.50
2019-06-20T09:49:22.020Z,87.30
2019-06-20T09:51:25.446Z,88.00
2019-06-20T09:53:28.960Z,86.70
2019-06-20T09:55:32.405Z,85.40
2019-06-20T09:57:36.242Z,86.10
2019-06-20T09:59:39.759Z,86.30
2019-06-20T10:01:43.292Z,88.40
2019-06-20T10:03:47.774Z,88.10
2019-06-20T10:05:52.556Z,86.50
2019-06-20T10:07:56.725Z,88.90
2019-06-20T10:10:00.446Z,87.80
2019-06-20T10:12:04.183Z,89.60
2019-06-20T10:14:08.175Z,89.80
2019-06-20T10:16:11.613Z,90.10
2019-06-20T10:18:15.054Z,91.50
2019-06-20T10:20:21.965Z,91.60
2019-06-20T10:22:25.412Z,94.00
2019-06-20T10:24:28.891Z,92.70
2019-06-20T10:26:32.412Z,93.80
2019-06-20T10:28:35.830Z,93.40
2019-06-20T10:30:39.299Z,93.10
2019-06-20T10:32:45.193Z,92.80
2019-06-20T10:34:48.351Z,92.80
2019-06-20T10:36:52.390Z,93.80
2019-06-20T10:38:56.938Z,94.20
2019-06-20T10:41:00.443Z,93.30
2019-06-20T10:43:04.119Z,95.00
2019-06-20T10:45:08.691Z,94.10
2019-06-20T10:47:12.142Z,93.30
2019-06-20T10:49:15.758Z,93.30
2019-06-20T10:51:33.325Z,92.40
2019-06-20T10:53:36.744Z,92.10
2019-06-20T10:55:41.611Z,91.30
2019-06-20T10:57:46.765Z,91.90
2019-06-20T10:59:50.914Z,92.20
2019-06-20T11:01:54.538Z,92.00
2019-06-20T11:03:58.023Z,91.20
2019-06-20T11:06:01.543Z,91.40
2019-06-20T11:08:05.133Z,89.70
2019-06-20T11:10:10.996Z,90.00
2019-06-20T11:12:14.505Z,90.00
2019-06-20T11:14:17.960Z,90.30
2019-06-20T11:16:23.086Z,90.50
2019-06-20T11:18:26.558Z,92.50
2019-06-20T11:20:30.135Z,91.00
2019-06-20T11:22:33.611Z,91.50
2019-06-20T11:24:38.054Z,91.40
2019-06-20T11:26:43.073Z,91.90
2019-06-20T11:28:46.560Z,91.30
2019-06-20T11:30:59.538Z,90.50
2019-06-20T11:32:55.173Z,90.60
2019-06-20T11:34:58.679Z,90.80
2019-06-20T11:37:02.159Z,90.30
2019-06-20T11:39:07.259Z,90.20
2019-06-20T11:41:10.763Z,90.10
2019-06-20T11:43:14.235Z,90.10
2019-06-20T11:45:17.808Z,91.30
2019-06-20T11:47:21.398Z,91.50
2019-06-20T11:49:24.841Z,90.40
2019-06-20T11:51:28.369Z,90.10
2019-06-20T11:53:31.845Z,90.00
2019-06-20T11:55:36.800Z,91.20
2019-06-20T11:57:40.246Z,92.20
2019-06-20T11:59:43.689Z,92.60
2019-06-20T12:01:47.299Z,91.90
2019-06-20T12:03:50.832Z,92.60
2019-06-20T12:05:54.359Z,91.80
2019-06-20T12:07:58.084Z,91.50
2019-06-20T12:10:01.643Z,92.10
2019-06-20T12:12:05.135Z,91.60
2019-06-20T12:14:08.744Z,90.30
2019-06-20T12:16:12.167Z,90.00
2019-06-20T12:18:15.591Z,88.50
2019-06-20T12:20:20.074Z,89.20
2019-06-20T12:22:23.560Z,87.80
2019-06-20T12:24:27.009Z,90.00
2019-06-20T12:26:30.438Z,89.00
2019-06-20T12:28:33.885Z,88.60
2019-06-20T12:30:38.427Z,87.60
2019-06-20T12:32:42.629Z,86.70
2019-06-20T12:34:46.615Z,84.60
2019-06-20T12:36:50.054Z,87.40
2019-06-20T12:38:53.481Z,84.20
2019-06-20T12:40:57.072Z,83.30
2019-06-20T12:43:00.495Z,82.90
2019-06-20T12:45:06.463Z,84.50
2019-06-20T12:47:09.900Z,84.60
2019-06-20T12:49:13.329Z,84.50
2019-06-20T12:51:16.908Z,83.50
2019-06-20T12:53:20.353Z,83.50
2019-06-20T12:55:23.804Z,81.10
2019-06-20T12:57:27.229Z,84.50
2019-06-20T12:59:30.660Z,84.10
2019-06-20T13:01:38.884Z,83.70
2019-06-20T13:03:40.439Z,82.10
2019-06-20T13:05:44.913Z,82.80
2019-06-20T13:07:48.492Z,85.60
2019-06-20T13:09:51.934Z,85.90
2019-06-20T13:11:55.545Z,82.70
2019-06-20T13:13:59.054Z,84.30
2019-06-20T13:16:02.663Z,80.30
2019-06-20T13:18:06.175Z,81.50
2019-06-20T13:20:10.168Z,80.60
2019-06-20T13:22:13.618Z,79.40
2019-06-20T13:24:17.114Z,80.90
2019-06-20T13:26:20.708Z,77.60
2019-06-20T13:28:24.370Z,77.30
2019-06-20T13:30:27.895Z,80.20
2019-06-20T13:32:31.423Z,79.50
2019-06-20T13:34:34.980Z,80.00
2019-06-20T13:36:39.877Z,79.00
2019-06-20T13:38:44.493Z,81.50
2019-06-20T13:40:49.288Z,81.20
2019-06-20T13:42:54.730Z,81.20
2019-06-20T13:44:58.055Z,80.20
2019-06-20T13:47:01.518Z,83.20
2019-06-20T13:49:05.095Z,81.10
2019-06-20T13:51:08.564Z,79.40
2019-06-20T13:53:12.067Z,79.60
2019-06-20T13:55:15.664Z,81.20
2019-06-20T13:57:19.124Z,80.90
2019-06-20T13:59:22.567Z,81.10
2019-06-20T14:01:26.006Z,81.70
2019-06-20T14:03:29.490Z,80.80
2019-06-20T14:05:32.932Z,80.50
2019-06-20T14:07:36.517Z,80.10
2019-06-20T14:09:39.963Z,81.00
2019-06-20T14:11:43.388Z,80.70
2019-06-20T14:13:50.177Z,82.20
2019-06-20T14:15:53.712Z,83.20
2019-06-20T14:17:57.347Z,80.70
2019-06-20T14:20:00.795Z,82.10
2019-06-20T14:22:04.313Z,84.20
2019-06-20T14:24:07.818Z,84.30
2019-06-20T14:26:11.248Z,83.10
2019-06-20T14:28:14.696Z,84.60
2019-06-20T14:30:19.733Z,81.80
2019-06-20T14:32:23.231Z,81.30
2019-06-20T14:34:26.758Z,82.40
2019-06-20T14:36:30.448Z,79.60
2019-06-20T14:38:33.913Z,79.80
2019-06-20T14:40:37.350Z,78.80
2019-06-20T14:42:40.924Z,81.50
2019-06-20T14:44:45.937Z,82.60
2019-06-20T14:46:49.538Z,81.10
2019-06-20T14:48:54.201Z,80.70
2019-06-20T14:50:57.742Z,79.40
2019-06-20T14:53:01.165Z,80.70
2019-06-20T14:55:07.923Z,80.00
2019-06-20T14:57:11.460Z,81.10
2019-06-20T14:59:14.912Z,80.00
2019-06-20T15:01:18.415Z,81.20
2019-06-20T15:03:21.862Z,80.70
2019-06-20T15:05:25.454Z,81.70
2019-06-20T15:07:28.887Z,80.20
2019-06-20T15:09:32.351Z,79.50
2019-06-20T15:11:35.843Z,79.60
2019-06-20T15:13:39.296Z,80.90
2019-06-20T15:15:42.739Z,80.20
2019-06-20T15:17:48.816Z,78.80
2019-06-20T15:19:51.462Z,82.00
2019-06-20T15:21:56.332Z,81.20
2019-06-20T15:24:00.175Z,79.20
2019-06-20T15:26:03.773Z,80.30
2019-06-20T15:28:07.207Z,81.00
2019-06-20T15:30:10.740Z,78.30
2019-06-20T15:32:14.214Z,81.80
2019-06-20T15:34:17.684Z,79.80
2019-06-20T15:36:21.141Z,82.70
2019-06-20T15:38:24.633Z,80.50
2019-06-20T15:40:28.140Z,80.20
2019-06-20T15:42:31.664Z,82.20
2019-06-20T15:44:35.111Z,82.00
2019-06-20T15:46:38.635Z,80.70
2019-06-20T15:48:42.099Z,78.20
2019-06-20T15:50:45.617Z,78.00
2019-06-20T15:52:49.052Z,77.90
2019-06-20T15:54:52.533Z,76.70
2019-06-20T15:56:56.141Z,79.80
2019-06-20T15:58:59.667Z,78.50
2019-06-20T16:01:03.129Z,77.30
2019-06-20T16:03:10.615Z,76.50
2019-06-20T16:05:14.723Z,76.00
2019-06-20T16:07:18.252Z,73.90
2019-06-20T16:09:21.745Z,75.20
2019-06-20T16:11:25.246Z,76.90
2019-06-20T16:13:28.714Z,78.30
2019-06-20T16:15:32.154Z,77.00
2019-06-20T16:17:35.680Z,76.80
2019-06-20T16:19:39.096Z,77.90
2019-06-20T16:21:42.584Z,80.20
2019-06-20T16:23:46.043Z,80.90
2019-06-20T16:25:49.480Z,81.60
2019-06-20T16:27:53.019Z,84.30
2019-06-20T16:29:56.584Z,85.00
2019-06-20T16:32:00.099Z,87.00
2019-06-20T16:34:03.594Z,87.30
2019-06-20T16:36:07.019Z,86.50
2019-06-20T16:38:10.472Z,82.60
2019-06-20T16:40:14.406Z,83.00
2019-06-20T16:42:17.863Z,82.30
2019-06-20T16:44:21.904Z,82.10
2019-06-20T16:46:25.401Z,80.50
2019-06-20T16:48:28.902Z,78.00
2019-06-20T16:50:32.467Z,75.10
2019-06-20T16:52:35.919Z,75.40
2019-06-20T16:54:39.423Z,76.00
2019-06-20T16:56:42.865Z,72.30
2019-06-20T16:58:46.315Z,74.00
2019-06-20T17:00:49.816Z,72.80
2019-06-20T17:02:53.299Z,72.00
2019-06-20T17:04:57.641Z,71.70
2019-06-20T17:07:01.074Z,70.30
2019-06-20T17:09:07.424Z,71.60
2019-06-20T17:11:10.976Z,71.40
2019-06-20T17:13:14.421Z,71.90
2019-06-20T17:15:18.520Z,73.10
2019-06-20T17:17:22.011Z,72.40
2019-06-20T17:19:25.476Z,74.20
2019-06-20T17:21:29.006Z,74.00
2019-06-20T17:23:32.560Z,73.60
2019-06-20T17:25:36.067Z,75.40
2019-06-20T17:27:39.738Z,75.60
2019-06-20T17:29:43.243Z,76.20
2019-06-20T17:31:46.677Z,76.00
2019-06-20T17:33:57.509Z,78.80
2019-06-20T17:35:55.308Z,78.50
2019-06-20T17:37:58.736Z,77.80
2019-06-20T17:40:02.376Z,78.90
2019-06-20T17:42:05.924Z,78.80
2019-06-20T17:44:09.379Z,80.70
2019-06-20T17:46:12.860Z,79.70
2019-06-20T17:48:16.304Z,80.10
2019-06-20T17:50:19.996Z,79.60
2019-06-20T17:52:23.576Z,79.30
2019-06-20T17:54:27.166Z,81.30
2019-06-20T17:56:30.687Z,82.10
2019-06-20T17:58:34.487Z,84.60
2019-06-20T18:00:38.113Z,85.80
2019-06-20T18:02:41.554Z,85.70
2019-06-20T18:04:45.007Z,84.90
2019-06-20T18:06:48.438Z,84.20
2019-06-20T18:08:51.861Z,84.90
2019-06-20T18:10:55.319Z,84.80
2019-06-20T18:12:59.198Z,85.20
2019-06-20T18:15:03.173Z,86.40
2019-06-20T18:17:06.761Z,87.70
2019-06-20T18:19:10.321Z,88.60
2019-06-20T18:21:13.757Z,88.30
2019-06-20T18:23:17.214Z,88.50
2019-06-20T18:25:20.740Z,90.00
2019-06-20T18:27:24.183Z,90.80
2019-06-20T18:29:27.632Z,90.70
2019-06-20T18:31:31.081Z,90.60
2019-06-20T18:33:34.572Z,90.20
2019-06-20T18:35:38.247Z,87.40
2019-06-20T18:37:41.710Z,87.80
2019-06-20T18:39:46.653Z,88.10
2019-06-20T18:41:50.158Z,88.20
2019-06-20T18:43:53.720Z,88.10
2019-06-20T18:45:57.223Z,87.50
2019-06-20T18:48:00.749Z,87.80
2019-06-20T18:50:05.833Z,88.00
2019-06-20T18:52:09.303Z,89.80
2019-06-20T18:54:12.802Z,88.80
2019-06-20T18:56:16.336Z,91.10
2019-06-20T18:58:19.921Z,91.90
2019-06-20T19:00:34.129Z,91.80
2019-06-20T19:02:30.488Z,91.70
2019-06-20T19:04:46.276Z,91.20
2019-06-20T19:06:39.108Z,91.10
2019-06-20T19:08:42.621Z,91.10
2019-06-20T19:10:46.100Z,91.30
2019-06-20T19:12:49.617Z,91.30
2019-06-20T19:14:53.073Z,91.40
2019-06-20T19:16:56.519Z,91.70
2019-06-20T19:19:00.111Z,91.40
2019-06-20T19:21:03.757Z,94.10
2019-06-20T19:23:07.352Z,95.10
2019-06-20T19:25:11.154Z,96.80
2019-06-20T19:27:14.611Z,98.90
2019-06-20T19:29:18.101Z,98.00
2019-06-20T19:31:22.176Z,99.20
2019-06-20T19:33:25.621Z,99.00
2019-06-20T19:35:29.059Z,99.20
2019-06-20T19:37:32.581Z,99.90
2019-06-20T19:39:36.027Z,99.90
2019-06-20T19:41:39.478Z,99.90
2019-06-20T19:43:43.007Z,99.70
2019-06-20T19:45:46.576Z,99.40
2019-06-20T19:47:50.111Z,98.70
2019-06-20T19:49:53.752Z,97.90
2019-06-20T19:51:57.186Z,97.10
2019-06-20T19:54:00.751Z,96.00
2019-06-20T19:56:04.332Z,96.00
2019-06-20T19:58:07.930Z,95.70
2019-06-20T20:00:12.789Z,95.70
2019-06-20T20:02:16.355Z,95.50
2019-06-20T20:04:19.870Z,94.70
2019-06-20T20:06:23.287Z,95.10
2019-06-20T20:08:27.500Z,95.00
2019-06-20T20:10:42.781Z,95.30
2019-06-20T20:12:46.214Z,95.90
2019-06-20T20:14:49.660Z,96.40
2019-06-20T20:16:53.091Z,95.60
2019-06-20T20:18:56.585Z,96.00
2019-06-20T20:21:00.109Z,95.90
2019-06-20T20:23:03.687Z,95.50
2019-06-20T20:25:08.005Z,95.50
2019-06-20T20:27:11.419Z,95.40
2019-06-20T20:29:14.908Z,95.00
2019-06-20T20:31:18.553Z,95.20
2019-06-20T20:33:22.070Z,95.20
2019-06-20T20:35:35.014Z,95.50
2019-06-20T20:37:30.947Z,95.40
2019-06-20T20:39:34.448Z,95.50
2019-06-20T20:41:37.993Z,95.20
2019-06-20T20:43:41.446Z,95.30
2019-06-20T20:45:45.061Z,95.50
2019-06-20T20:47:48.493Z,95.60
2019-06-20T20:49:51.953Z,96.00
2019-06-20T20:51:55.412Z,96.30
2019-06-20T20:53:58.856Z,96.20
2019-06-20T20:56:02.575Z,95.90
2019-06-20T20:58:06.120Z,95.70
2019-06-20T21:00:12.188Z,95.80
2019-06-20T21:02:15.660Z,95.80
2019-06-20T21:04:19.086Z,95.30
2019-06-20T21:06:22.528Z,95.20
2019-06-20T21:08:26.022Z,95.00
2019-06-20T21:10:29.484Z,94.90
2019-06-20T21:12:33.092Z,94.90
2019-06-20T21:14:36.608Z,95.10
2019-06-20T21:16:40.072Z,95.00
2019-06-20T21:18:43.556Z,95.10
2019-06-20T21:20:47.093Z,95.40
2019-06-20T21:22:50.539Z,95.20
2019-06-20T21:24:53.940Z,95.20
2019-06-20T21:26:57.423Z,95.30
2019-06-20T21:29:00.865Z,95.30
2019-06-20T21:31:04.438Z,95.10
2019-06-20T21:33:07.873Z,94.90
2019-06-20T21:35:11.659Z,94.10
2019-06-20T21:37:15.107Z,94.20
2019-06-20T21:39:18.535Z,94.50
2019-06-20T21:41:21.962Z,94.60
2019-06-20T21:43:25.480Z,94.80
2019-06-20T21:45:29.105Z,94.50
2019-06-20T21:47:32.554Z,94.30
2019-06-20T21:49:35.990Z,94.40
2019-06-20T21:51:39.562Z,94.50
2019-06-20T21:53:42.999Z,94.60
2019-06-20T21:55:46.487Z,95.00
2019-06-20T21:57:49.933Z,95.60
2019-06-20T21:59:53.445Z,95.40
2019-06-20T22:01:57.011Z,95.10
2019-06-20T22:04:00.459Z,95.00
2019-06-20T22:06:04.055Z,94.60
2019-06-20T22:08:07.636Z,94.40
2019-06-20T22:10:11.597Z,94.40
2019-06-20T22:12:15.046Z,94.90
2019-06-20T22:14:18.538Z,94.80
2019-06-20T22:16:21.984Z,94.80
2019-06-20T22:18:27.190Z,94.90
2019-06-20T22:20:30.802Z,95.00
2019-06-20T22:22:34.389Z,95.80
2019-06-20T22:24:37.875Z,95.30
2019-06-20T22:26:41.307Z,94.90
2019-06-20T22:28:44.812Z,95.60
2019-06-20T22:30:51.319Z,95.00
2019-06-20T22:32:54.766Z,95.40
2019-06-20T22:34:58.188Z,95.10
2019-06-20T22:37:01.607Z,95.60
2019-06-20T22:39:08.076Z,96.00
2019-06-20T22:41:11.505Z,96.40
2019-06-20T22:43:14.959Z,96.80
2019-06-20T22:45:18.476Z,96.70
2019-06-20T22:47:22.047Z,96.70
2019-06-20T22:49:25.515Z,96.60
2019-06-20T22:51:28.963Z,96.50
2019-06-20T22:53:32.417Z,96.10
2019-06-20T22:55:36.072Z,96.20
2019-06-20T22:57:39.508Z,95.80
2019-06-20T22:59:46.371Z,96.20
2019-06-20T23:01:48.127Z,96.20
2019-06-20T23:03:51.613Z,95.80
2019-06-20T23:05:55.040Z,95.90
2019-06-20T23:07:58.474Z,95.80
2019-06-20T23:10:10.564Z,95.90
2019-06-20T23:12:07.136Z,95.60
2019-06-20T23:14:10.595Z,95.80
2019-06-20T23:16:14.092Z,95.90
2019-06-20T23:18:17.539Z,95.30
2019-06-20T23:20:21.204Z,95.40
2019-06-20T23:22:24.644Z,95.60
2019-06-20T23:24:28.162Z,95.40
2019-06-20T23:26:31.592Z,95.60
2019-06-20T23:28:35.000Z,95.50
2019-06-20T23:30:38.521Z,95.50
2019-06-20T23:32:41.939Z,95.40
2019-06-20T23:34:45.375Z,95.10
2019-06-20T23:36:49.110Z,94.90
2019-06-20T23:38:52.584Z,94.90
2019-06-20T23:40:56.043Z,95.00
2019-06-20T23:42:59.468Z,95.10
2019-06-20T23:45:04.997Z,95.30
2019-06-20T23:47:08.450Z,95.20
2019-06-20T23:49:11.867Z,96.50
2019-06-20T23:51:24.890Z,96.70
2019-06-20T23:53:24.947Z,96.80
2019-06-20T23:55:28.392Z,96.50
2019-06-20T23:57:31.897Z,96.50
2019-06-20T23:59:35.327Z,96.30
